createdAt,value
2023-02-15T00:01:48.605Z,89.40
2023-02-15T00:04:17.612Z,89.33
2023-02-15T00:06:45.215Z,89.47
2023-02-15T00:09:12.840Z,89.22
2023-02-15T00:11:51.293Z,89.48
2023-02-15T00:14:24.475Z,89.41
2023-02-15T00:16:53.507Z,89.09
2023-02-15T00:19:21.836Z,88.85
2023-02-15T00:21:50.193Z,88.67
2023-02-15T00:24:19.163Z,88.44
2023-02-15T00:26:48.161Z,88.52
2023-02-15T00:29:16.978Z,88.54
2023-02-15T00:31:44.178Z,88.32
2023-02-15T00:34:16.655Z,88.58
2023-02-15T00:36:44.560Z,88.63
2023-02-15T00:39:12.383Z,88.22
2023-02-15T00:41:40.718Z,87.75
2023-02-15T00:44:08.479Z,87.79
2023-02-15T00:46:36.309Z,87.96
2023-02-15T00:49:04.453Z,88.32
2023-02-15T00:51:33.736Z,88.56
2023-02-15T00:54:00.634Z,88.48
2023-02-15T00:56:29.410Z,88.39
2023-02-15T00:58:56.369Z,88.76
2023-02-15T01:01:24.641Z,88.40
2023-02-15T01:03:51.998Z,88.17
2023-02-15T01:06:22.326Z,88.22
2023-02-15T01:08:49.479Z,87.81
2023-02-15T01:11:23.021Z,87.85
2023-02-15T01:13:53.268Z,88.88
2023-02-15T01:16:20.934Z,88.69
2023-02-15T01:18:47.838Z,88.83
2023-02-15T01:21:20.815Z,89.24
2023-02-15T01:23:48.396Z,89.76
2023-02-15T01:26:15.991Z,89.39
2023-02-15T01:28:45.190Z,89.36
2023-02-15T01:31:18.104Z,89.36
2023-02-15T01:33:46.327Z,89.86
2023-02-15T01:36:13.322Z,89.81
2023-02-15T01:38:42.888Z,88.77
2023-02-15T01:41:25.586Z,88.71
2023-02-15T01:44:00.455Z,88.93
2023-02-15T01:46:36.846Z,88.42
2023-02-15T01:49:10.635Z,88.19
2023-02-15T01:51:39.142Z,88.87
2023-02-15T01:54:19.488Z,89.00
2023-02-15T01:56:47.723Z,88.52
2023-02-15T01:59:20.901Z,88.76
2023-02-15T02:01:50.865Z,87.96
2023-02-15T02:04:26.656Z,88.26
2023-02-15T02:06:55.199Z,87.61
2023-02-15T02:09:21.824Z,88.24
2023-02-15T02:11:49.917Z,88.19
2023-02-15T02:14:17.540Z,87.38
2023-02-15T02:16:57.880Z,87.29
2023-02-15T02:20:04.732Z,86.58
2023-02-15T02:23:04.429Z,86.90
2023-02-15T02:26:04.359Z,87.25
2023-02-15T02:28:50.480Z,86.63
2023-02-15T02:31:55.173Z,87.12
2023-02-15T02:34:27.706Z,87.14
2023-02-15T02:37:22.012Z,87.29
2023-02-15T02:40:26.824Z,87.36
2023-02-15T02:43:14.983Z,86.84
2023-02-15T02:45:50.594Z,86.90
2023-02-15T02:48:23.588Z,86.61
2023-02-15T02:50:50.118Z,85.89
2023-02-15T02:53:17.065Z,86.28
2023-02-15T02:55:51.043Z,85.88
2023-02-15T02:58:25.781Z,85.88
2023-02-15T03:00:55.714Z,85.54
2023-02-15T03:03:30.686Z,85.14
2023-02-15T03:06:05.248Z,85.51
2023-02-15T03:08:39.182Z,86.03
2023-02-15T03:11:07.834Z,86.02
2023-02-15T03:13:37.682Z,85.04
2023-02-15T03:16:26.483Z,85.67
2023-02-15T03:19:02.372Z,86.18
2023-02-15T03:21:43.964Z,85.96
2023-02-15T03:24:17.346Z,85.56
2023-02-15T03:26:48.701Z,86.95
2023-02-15T03:29:17.962Z,86.85
2023-02-15T03:31:48.807Z,86.09
2023-02-15T03:34:17.368Z,86.40
2023-02-15T03:36:55.956Z,85.86
2023-02-15T03:39:34.589Z,87.29
2023-02-15T03:42:23.750Z,87.46
2023-02-15T03:45:17.485Z,88.24
2023-02-15T03:47:48.109Z,88.41
2023-02-15T03:50:49.891Z,88.79
2023-02-15T03:53:22.283Z,89.16
2023-02-15T03:55:55.768Z,89.95
2023-02-15T03:58:41.451Z,89.67
2023-02-15T04:01:42.870Z,90.60
2023-02-15T04:04:18.405Z,90.51
2023-02-15T04:06:45.096Z,90.43
2023-02-15T04:09:31.391Z,90.48
2023-02-15T04:11:57.971Z,90.38
2023-02-15T04:14:43.579Z,90.61
2023-02-15T04:17:11.781Z,90.73
2023-02-15T04:19:57.688Z,90.19
2023-02-15T04:22:42.955Z,90.16
2023-02-15T04:25:16.252Z,90.39
2023-02-15T04:27:49.286Z,89.52
2023-02-15T04:30:19.318Z,89.12
2023-02-15T04:32:46.245Z,88.55
2023-02-15T04:35:15.406Z,88.95
2023-02-15T04:37:42.688Z,87.75
2023-02-15T04:40:12.107Z,87.74
2023-02-15T04:42:38.666Z,87.81
2023-02-15T04:45:06.129Z,88.16
2023-02-15T04:47:34.812Z,88.92
2023-02-15T04:50:02.213Z,87.78
2023-02-15T04:52:29.024Z,87.73
2023-02-15T04:54:55.763Z,88.14
2023-02-15T04:57:24.532Z,88.62
2023-02-15T04:59:51.094Z,88.90
2023-02-15T05:02:17.836Z,88.77
2023-02-15T05:04:44.675Z,88.56
2023-02-15T05:07:14.868Z,89.42
2023-02-15T05:09:42.091Z,88.78
2023-02-15T05:12:08.821Z,88.41
2023-02-15T05:14:35.533Z,88.00
2023-02-15T05:17:04.266Z,88.37
2023-02-15T05:19:33.243Z,89.32
2023-02-15T05:22:00.348Z,89.41
2023-02-15T05:24:45.920Z,88.62
2023-02-15T05:27:31.702Z,88.33
2023-02-15T05:29:58.463Z,88.18
2023-02-15T05:32:25.415Z,87.81
2023-02-15T05:34:53.350Z,88.10
2023-02-15T05:37:20.052Z,88.26
2023-02-15T05:39:47.400Z,88.30
2023-02-15T05:42:14.108Z,89.05
2023-02-15T05:44:41.057Z,89.24
2023-02-15T05:47:08.716Z,88.42
2023-02-15T05:49:35.981Z,93.85
2023-02-15T05:52:03.329Z,100.00
2023-02-15T05:54:31.017Z,100.00
2023-02-15T05:56:57.828Z,100.00
2023-02-15T05:59:24.623Z,95.97
2023-02-15T06:01:51.755Z,88.52
2023-02-15T06:04:18.968Z,81.41
2023-02-15T06:06:46.004Z,80.70
2023-02-15T06:09:14.754Z,80.69
2023-02-15T06:11:41.723Z,81.36
2023-02-15T06:14:08.945Z,81.48
2023-02-15T06:16:35.473Z,81.89
2023-02-15T06:19:03.864Z,82.55
2023-02-15T06:21:31.376Z,82.63
2023-02-15T06:23:58.517Z,83.61
2023-02-15T06:26:25.372Z,83.89
2023-02-15T06:28:52.340Z,84.70
2023-02-15T06:31:19.384Z,84.90
2023-02-15T06:33:46.868Z,84.69
2023-02-15T06:36:13.582Z,84.29
2023-02-15T06:38:47.827Z,83.83
2023-02-15T06:41:15.972Z,84.02
2023-02-15T06:43:42.937Z,84.46
2023-02-15T06:46:10.527Z,84.49
2023-02-15T06:48:37.606Z,84.41
2023-02-15T06:51:04.389Z,84.05
2023-02-15T06:53:32.043Z,84.42
2023-02-15T06:56:08.083Z,84.16
2023-02-15T06:58:34.746Z,84.56
2023-02-15T07:01:01.204Z,84.01
2023-02-15T07:03:29.321Z,83.40
2023-02-15T07:05:57.338Z,83.91
2023-02-15T07:08:25.146Z,83.50
2023-02-15T07:10:53.009Z,83.58
2023-02-15T07:13:20.421Z,83.64
2023-02-15T07:15:48.828Z,83.85
2023-02-15T07:18:16.838Z,83.51
2023-02-15T07:20:43.988Z,83.21
2023-02-15T07:23:10.773Z,82.97
2023-02-15T07:25:38.953Z,83.07
2023-02-15T07:28:06.847Z,83.32
2023-02-15T07:30:33.696Z,83.07
2023-02-15T07:33:19.982Z,83.63
2023-02-15T07:35:51.522Z,83.26
2023-02-15T07:38:19.768Z,83.04
2023-02-15T07:40:46.821Z,82.99
2023-02-15T07:43:14.414Z,83.42
2023-02-15T07:45:41.482Z,83.45
2023-02-15T07:48:08.718Z,83.12
2023-02-15T07:50:36.048Z,82.72
2023-02-15T07:53:04.159Z,82.51
2023-02-15T07:55:32.276Z,82.45
2023-02-15T07:58:01.972Z,81.83
2023-02-15T08:00:33.487Z,82.43
2023-02-15T08:03:15.418Z,82.54
2023-02-15T08:05:45.519Z,83.10
2023-02-15T08:08:31.048Z,83.58
2023-02-15T08:11:33.843Z,83.58
2023-02-15T08:14:05.840Z,82.98
2023-02-15T08:16:32.472Z,82.77
2023-02-15T08:19:01.780Z,82.42
2023-02-15T08:21:29.928Z,81.82
2023-02-15T08:23:57.234Z,82.09
2023-02-15T08:26:26.095Z,82.06
2023-02-15T08:28:52.947Z,82.12
2023-02-15T08:31:22.180Z,82.45
2023-02-15T08:33:52.148Z,82.26
2023-02-15T08:36:21.684Z,81.61
2023-02-15T08:38:49.827Z,81.40
2023-02-15T08:41:18.546Z,81.15
2023-02-15T08:43:45.746Z,81.39
2023-02-15T08:46:14.269Z,82.38
2023-02-15T08:48:41.765Z,82.52
2023-02-15T08:51:18.039Z,83.24
2023-02-15T08:53:55.254Z,83.07
2023-02-15T08:56:25.190Z,84.13
2023-02-15T08:58:51.878Z,83.69
2023-02-15T09:01:24.048Z,82.94
2023-02-15T09:04:13.103Z,83.09
2023-02-15T09:06:41.783Z,82.59
2023-02-15T09:09:09.210Z,83.01
2023-02-15T09:11:40.120Z,83.79
2023-02-15T09:14:18.743Z,84.14
2023-02-15T09:16:52.689Z,83.81
2023-02-15T09:19:21.500Z,83.22
2023-02-15T09:21:48.405Z,82.64
2023-02-15T09:24:17.272Z,82.86
2023-02-15T09:26:49.638Z,82.76
2023-02-15T09:29:17.795Z,82.38
2023-02-15T09:31:47.285Z,82.22
2023-02-15T09:34:17.970Z,82.66
2023-02-15T09:36:45.113Z,83.01
2023-02-15T09:39:21.522Z,82.58
2023-02-15T09:41:53.234Z,82.12
2023-02-15T09:44:55.863Z,82.69
2023-02-15T09:47:56.408Z,82.44
2023-02-15T09:50:29.149Z,81.49
2023-02-15T09:53:19.149Z,80.59
2023-02-15T09:55:48.909Z,80.77
2023-02-15T09:58:15.793Z,80.54
2023-02-15T10:01:02.253Z,81.28
2023-02-15T10:04:00.060Z,80.35
2023-02-15T10:06:34.861Z,81.17
2023-02-15T10:09:18.318Z,81.03
2023-02-15T10:12:12.497Z,80.20
2023-02-15T10:14:48.966Z,79.97
2023-02-15T10:17:30.213Z,78.67
2023-02-15T10:20:19.175Z,78.94
2023-02-15T10:22:55.798Z,79.47
2023-02-15T10:25:51.976Z,79.06
2023-02-15T10:28:21.170Z,77.65
2023-02-15T10:30:51.678Z,77.76
2023-02-15T10:33:43.146Z,76.68
2023-02-15T10:36:28.865Z,76.21
2023-02-15T10:39:21.915Z,74.28
2023-02-15T10:42:01.212Z,73.22
2023-02-15T10:44:53.180Z,72.68
2023-02-15T10:47:54.001Z,72.19
2023-02-15T10:50:42.336Z,70.79
2023-02-15T10:53:21.464Z,69.95
2023-02-15T10:56:14.296Z,70.49
2023-02-15T10:58:47.046Z,70.00
2023-02-15T11:01:24.478Z,69.68
2023-02-15T11:04:03.185Z,70.02
2023-02-15T11:06:31.858Z,69.02
2023-02-15T11:09:09.561Z,67.54
2023-02-15T11:11:43.469Z,68.49
2023-02-15T11:14:37.709Z,67.99
2023-02-15T11:18:55.664Z,67.77
2023-02-15T11:20:36.964Z,67.60
2023-02-15T11:23:16.375Z,66.62
2023-02-15T11:25:48.917Z,66.68
2023-02-15T11:28:30.161Z,67.13
2023-02-15T11:31:02.813Z,66.57
2023-02-15T11:33:38.977Z,66.88
2023-02-15T11:36:18.238Z,67.17
2023-02-15T11:38:48.395Z,66.48
2023-02-15T11:41:21.996Z,66.13
2023-02-15T11:44:17.494Z,66.52
2023-02-15T11:46:44.775Z,66.38
2023-02-15T11:49:24.749Z,66.53
2023-02-15T11:51:52.736Z,67.70
2023-02-15T11:54:24.837Z,68.34
2023-02-15T11:56:51.510Z,69.22
2023-02-15T11:59:33.443Z,70.10
2023-02-15T12:02:00.274Z,71.70
2023-02-15T12:04:45.266Z,71.03
2023-02-15T12:07:30.735Z,70.69
2023-02-15T12:10:18.195Z,71.52
2023-02-15T12:12:45.098Z,72.37
2023-02-15T12:15:14.538Z,71.53
2023-02-15T12:17:53.663Z,70.86
2023-02-15T12:20:20.218Z,71.61
2023-02-15T12:22:52.095Z,70.94
2023-02-15T12:25:37.813Z,71.40
2023-02-15T12:28:19.124Z,70.78
2023-02-15T12:30:46.033Z,71.38
2023-02-15T12:33:36.623Z,70.91
2023-02-15T12:36:15.315Z,69.82
2023-02-15T12:38:42.100Z,69.79
2023-02-15T12:41:27.467Z,68.58
2023-02-15T12:44:17.833Z,69.09
2023-02-15T12:46:58.250Z,69.10
2023-02-15T12:49:27.739Z,68.62
2023-02-15T12:51:56.945Z,68.25
2023-02-15T12:54:24.362Z,66.66
2023-02-15T12:56:52.054Z,67.65
2023-02-15T12:59:23.445Z,67.24
2023-02-15T13:01:54.784Z,66.47
2023-02-15T13:04:30.871Z,66.64
2023-02-15T13:07:03.351Z,65.67
2023-02-15T13:09:33.372Z,65.81
2023-02-15T13:12:22.323Z,65.33
2023-02-15T13:14:52.983Z,65.71
2023-02-15T13:17:31.000Z,65.26
2023-02-15T13:29:44.860Z,65.20
2023-02-15T13:32:37.470Z,64.71
2023-02-15T13:36:22.527Z,64.30
2023-02-15T13:39:11.962Z,64.00
2023-02-15T13:41:59.112Z,63.62
2023-02-15T13:44:44.815Z,63.37
2023-02-15T13:47:25.948Z,63.64
2023-02-15T13:50:11.718Z,63.25
2023-02-15T13:52:52.622Z,63.68
2023-02-15T13:55:37.509Z,63.75
2023-02-15T13:58:31.286Z,63.74
2023-02-15T14:01:34.091Z,63.23
2023-02-15T14:04:19.720Z,62.93
2023-02-15T14:07:23.235Z,63.37
2023-02-15T14:10:22.264Z,62.54
2023-02-15T14:13:27.382Z,62.46
2023-02-15T14:16:04.315Z,61.47
2023-02-15T14:18:42.629Z,61.34
2023-02-15T14:21:28.974Z,60.28
2023-02-15T14:24:13.092Z,60.55
2023-02-15T14:27:01.846Z,60.76
2023-02-15T14:29:47.925Z,61.26
2023-02-15T14:32:37.233Z,61.27
2023-02-15T14:35:06.621Z,61.61
2023-02-15T14:38:01.739Z,61.06
2023-02-15T14:41:02.782Z,61.86
2023-02-15T14:43:59.487Z,61.80
2023-02-15T14:46:38.117Z,62.70
2023-02-15T14:49:12.860Z,62.03
2023-02-15T14:51:51.757Z,61.84
2023-02-15T14:54:18.373Z,62.13
2023-02-15T14:56:46.852Z,61.61
2023-02-15T14:59:22.644Z,62.09
2023-02-15T15:01:59.691Z,61.62
2023-02-15T15:04:29.436Z,61.66
2023-02-15T15:07:10.601Z,61.80
2023-02-15T15:09:41.531Z,62.67
2023-02-15T15:12:23.375Z,62.82
2023-02-15T15:14:51.405Z,63.12
2023-02-15T15:17:38.844Z,62.97
2023-02-15T15:20:35.219Z,63.41
2023-02-15T15:23:17.061Z,63.75
2023-02-15T15:25:48.930Z,63.38
2023-02-15T15:28:33.889Z,65.03
2023-02-15T15:31:18.636Z,64.49
2023-02-15T15:34:17.497Z,64.80
2023-02-15T15:37:06.174Z,65.51
2023-02-15T15:39:44.933Z,65.96
2023-02-15T15:42:40.129Z,66.03
2023-02-15T15:45:28.524Z,65.72
2023-02-15T15:48:07.269Z,65.93
2023-02-15T15:50:35.335Z,66.23
2023-02-15T15:53:05.001Z,66.18
2023-02-15T15:55:34.837Z,65.79
2023-02-15T15:58:06.085Z,66.11
2023-02-15T16:00:52.204Z,66.88
2023-02-15T16:03:27.806Z,67.26
2023-02-15T16:05:56.709Z,67.34
2023-02-15T16:08:43.830Z,67.36
2023-02-15T16:11:30.963Z,67.68
2023-02-15T16:13:57.848Z,67.60
2023-02-15T16:16:30.388Z,67.57
2023-02-15T16:19:01.400Z,68.24
2023-02-15T16:21:34.983Z,67.65
2023-02-15T16:24:26.353Z,67.76
2023-02-15T16:27:31.562Z,68.31
2023-02-15T16:29:58.649Z,68.46
2023-02-15T16:32:27.906Z,68.74
2023-02-15T16:35:03.227Z,69.70
2023-02-15T16:37:34.888Z,69.27
2023-02-15T16:40:02.043Z,69.59
2023-02-15T16:42:29.111Z,69.59
2023-02-15T16:45:02.933Z,69.57
2023-02-15T16:47:35.068Z,68.96
2023-02-15T16:50:05.626Z,69.65
2023-02-15T16:52:32.756Z,69.47
2023-02-15T16:55:03.959Z,69.64
2023-02-15T16:57:39.723Z,69.79
2023-02-15T17:00:20.019Z,70.23
2023-02-15T17:03:07.724Z,70.25
2023-02-15T17:05:45.763Z,70.65
2023-02-15T17:08:35.682Z,70.32
2023-02-15T17:11:02.826Z,71.10
2023-02-15T17:13:30.326Z,71.55
2023-02-15T17:16:03.877Z,71.60
2023-02-15T17:18:40.343Z,72.32
2023-02-15T17:21:14.483Z,72.13
2023-02-15T17:23:47.545Z,72.20
2023-02-15T17:26:25.910Z,72.13
2023-02-15T17:29:00.304Z,72.24
2023-02-15T17:31:33.517Z,72.71
2023-02-15T17:34:01.851Z,72.89
2023-02-15T17:36:32.808Z,73.22
2023-02-15T17:39:05.175Z,73.38
2023-02-15T17:41:40.855Z,72.87
2023-02-15T17:44:09.466Z,73.76
2023-02-15T17:46:42.555Z,73.21
2023-02-15T17:49:23.843Z,74.31
2023-02-15T17:51:50.720Z,74.65
2023-02-15T17:54:36.236Z,73.57
2023-02-15T17:57:06.919Z,73.88
2023-02-15T17:59:35.650Z,73.31
2023-02-15T18:02:23.169Z,74.27
2023-02-15T18:05:08.460Z,74.34
2023-02-15T18:07:54.135Z,74.94
2023-02-15T18:10:39.486Z,75.00
2023-02-15T18:13:07.660Z,75.29
2023-02-15T18:15:35.200Z,75.52
2023-02-15T18:18:02.637Z,75.87
2023-02-15T18:20:37.178Z,75.29
2023-02-15T18:23:03.923Z,75.32
2023-02-15T18:25:31.776Z,75.39
2023-02-15T18:27:58.999Z,75.61
2023-02-15T18:30:27.043Z,75.32
2023-02-15T18:32:57.594Z,75.14
2023-02-15T18:35:28.701Z,76.00
2023-02-15T18:37:56.913Z,76.37
2023-02-15T18:40:26.730Z,76.14
2023-02-15T18:42:54.041Z,75.50
2023-02-15T18:45:24.744Z,75.84
2023-02-15T18:47:54.486Z,75.64
2023-02-15T18:50:22.559Z,75.12
2023-02-15T18:52:52.466Z,74.60
2023-02-15T18:55:25.504Z,75.73
2023-02-15T18:57:57.390Z,75.34
2023-02-15T19:00:28.487Z,75.20
2023-02-15T19:02:57.941Z,81.09
2023-02-15T19:05:28.244Z,93.33
2023-02-15T19:07:56.139Z,90.75
2023-02-15T19:10:26.018Z,74.82
2023-02-15T19:12:56.058Z,71.96
2023-02-15T19:15:30.547Z,72.22
2023-02-15T19:17:57.290Z,72.68
2023-02-15T19:20:28.001Z,73.45
2023-02-15T19:22:58.215Z,73.82
2023-02-15T19:25:30.731Z,74.42
2023-02-15T19:27:58.773Z,75.00
2023-02-15T19:30:31.511Z,75.27
2023-02-15T19:32:59.836Z,74.99
2023-02-15T19:35:31.475Z,75.39
2023-02-15T19:38:03.426Z,76.04
2023-02-15T19:40:33.346Z,77.12
2023-02-15T19:43:00.583Z,77.66
2023-02-15T19:45:29.656Z,78.37
2023-02-15T19:47:57.143Z,77.09
2023-02-15T19:50:30.275Z,77.19
2023-02-15T19:52:57.749Z,77.00
2023-02-15T19:55:29.513Z,77.33
2023-02-15T19:57:58.976Z,77.33
2023-02-15T20:00:28.538Z,78.14
2023-02-15T20:02:56.081Z,78.28
2023-02-15T20:05:23.303Z,78.79
2023-02-15T20:07:52.143Z,78.47
2023-02-15T20:10:29.100Z,77.49
2023-02-15T20:12:56.411Z,77.89
2023-02-15T20:15:34.955Z,77.62
2023-02-15T20:18:04.417Z,77.89
2023-02-15T20:20:41.912Z,78.34
2023-02-15T20:23:31.396Z,77.98
2023-02-15T20:26:18.278Z,77.75
2023-02-15T20:28:46.386Z,78.07
2023-02-15T20:31:19.555Z,77.70
2023-02-15T20:33:46.485Z,77.01
2023-02-15T20:36:18.254Z,77.54
2023-02-15T20:38:45.698Z,77.14
2023-02-15T20:41:36.190Z,77.24
2023-02-15T20:44:34.538Z,77.73
2023-02-15T20:47:02.860Z,78.08
2023-02-15T20:49:29.728Z,78.19
2023-02-15T20:51:58.440Z,78.22
2023-02-15T20:54:28.849Z,77.52
2023-02-15T20:56:55.719Z,77.21
2023-02-15T20:59:26.902Z,76.67
2023-02-15T21:02:04.754Z,77.09
2023-02-15T21:04:34.237Z,76.57
2023-02-15T21:07:01.180Z,76.72
2023-02-15T21:09:28.625Z,77.11
2023-02-15T21:11:57.021Z,77.59
2023-02-15T21:14:26.979Z,77.44
2023-02-15T21:16:53.824Z,77.01
2023-02-15T21:19:23.980Z,77.16
2023-02-15T21:21:53.284Z,77.40
2023-02-15T21:24:26.260Z,77.42
2023-02-15T21:26:54.714Z,77.60
2023-02-15T21:29:24.648Z,78.00
2023-02-15T21:31:51.881Z,77.92
2023-02-15T21:34:18.744Z,78.16
2023-02-15T21:36:47.166Z,78.06
2023-02-15T21:39:26.103Z,78.03
2023-02-15T21:42:13.395Z,77.63
2023-02-15T21:44:58.700Z,78.43
2023-02-15T21:47:49.229Z,78.15
2023-02-15T21:50:43.291Z,79.11
2023-02-15T21:53:22.142Z,79.07
2023-02-15T21:55:49.058Z,78.64
2023-02-15T21:58:27.190Z,78.58
2023-02-15T22:00:56.114Z,79.32
2023-02-15T22:03:24.890Z,79.38
2023-02-15T22:05:53.197Z,79.00
2023-02-15T22:08:20.031Z,78.95
2023-02-15T22:10:48.383Z,78.46
2023-02-15T22:13:28.117Z,77.89
2023-02-15T22:15:56.007Z,77.76
2023-02-15T22:18:26.289Z,78.06
2023-02-15T22:20:54.497Z,78.40
2023-02-15T22:23:22.035Z,79.45
2023-02-15T22:25:54.939Z,79.75
2023-02-15T22:28:26.566Z,80.54
2023-02-15T22:30:53.200Z,80.17
2023-02-15T22:33:31.808Z,80.19
2023-02-15T22:36:01.074Z,79.66
2023-02-15T22:38:27.849Z,80.23
2023-02-15T22:40:57.645Z,79.44
2023-02-15T22:43:39.956Z,79.87
2023-02-15T22:46:36.705Z,79.87
2023-02-15T22:49:04.612Z,79.46
2023-02-15T22:51:31.252Z,80.08
2023-02-15T22:53:58.112Z,80.24
2023-02-15T22:56:26.541Z,80.91
2023-02-15T22:59:00.621Z,80.76
2023-02-15T23:01:31.204Z,80.05
2023-02-15T23:04:01.291Z,80.32
2023-02-15T23:06:29.844Z,79.36
2023-02-15T23:08:57.108Z,78.48
2023-02-15T23:11:23.728Z,78.36
2023-02-15T23:13:50.600Z,79.24
2023-02-15T23:16:18.699Z,79.45
2023-02-15T23:18:47.020Z,78.56
2023-02-15T23:21:26.301Z,77.99
2023-02-15T23:23:55.915Z,78.50
2023-02-15T23:26:27.912Z,78.08
2023-02-15T23:28:56.687Z,77.83
2023-02-15T23:31:26.192Z,78.20
2023-02-15T23:33:54.400Z,78.19
2023-02-15T23:36:31.618Z,78.32
2023-02-15T23:39:24.427Z,78.33
2023-02-15T23:41:51.464Z,78.15
2023-02-15T23:44:19.497Z,77.80
2023-02-15T23:46:48.343Z,77.04
2023-02-15T23:49:17.976Z,78.15
2023-02-15T23:51:47.688Z,77.96
2023-02-15T23:54:16.716Z,77.13
2023-02-15T23:56:47.286Z,76.82
2023-02-15T23:59:19.386Z,76.89
